sensor_id;sensor_type;location;lat;lon;timestamp;P1;durP1;ratioP1;P2;durP2;ratioP2
14187;SDS011;7175;51.978;5.330;2023-02-22T00:01:55;45.47;;;42.27;;
14187;SDS011;7175;51.978;5.330;2023-02-22T00:04:38;47.17;;;43.97;;
14187;SDS011;7175;51.978;5.330;2023-02-22T00:07:06;46.77;;;43.57;;
14187;SDS011;7175;51.978;5.330;2023-02-22T00:09:36;47.13;;;43.90;;
14187;SDS011;7175;51.978;5.330;2023-02-22T00:12:04;48.73;;;45.43;;
14187;SDS011;7175;51.978;5.330;2023-02-22T00:14:33;50.00;;;46.60;;
14187;SDS011;7175;51.978;5.330;2023-02-22T00:17:02;49.63;;;46.20;;
14187;SDS011;7175;51.978;5.330;2023-02-22T00:19:30;52.20;;;48.67;;
14187;SDS011;7175;51.978;5.330;2023-02-22T00:21:58;51.67;;;48.17;;
14187;SDS011;7175;51.978;5.330;2023-02-22T00:24:26;50.77;;;47.27;;
14187;SDS011;7175;51.978;5.330;2023-02-22T00:26:56;49.33;;;45.93;;
14187;SDS011;7175;51.978;5.330;2023-02-22T00:29:24;49.30;;;45.90;;
14187;SDS011;7175;51.978;5.330;2023-02-22T00:31:53;50.60;;;46.90;;
14187;SDS011;7175;51.978;5.330;2023-02-22T00:34:22;49.47;;;45.97;;
14187;SDS011;7175;51.978;5.330;2023-02-22T00:36:50;53.80;;;50.00;;
14187;SDS011;7175;51.978;5.330;2023-02-22T00:39:18;51.80;;;48.20;;
14187;SDS011;7175;51.978;5.330;2023-02-22T00:41:46;52.57;;;48.97;;
14187;SDS011;7175;51.978;5.330;2023-02-22T00:44:16;53.20;;;49.50;;
14187;SDS011;7175;51.978;5.330;2023-02-22T00:46:44;49.27;;;45.87;;
14187;SDS011;7175;51.978;5.330;2023-02-22T00:49:12;49.50;;;46.10;;
14187;SDS011;7175;51.978;5.330;2023-02-22T00:51:40;48.13;;;44.83;;
14187;SDS011;7175;51.978;5.330;2023-02-22T00:54:09;48.37;;;45.07;;
14187;SDS011;7175;51.978;5.330;2023-02-22T00:56:37;47.97;;;44.67;;
14187;SDS011;7175;51.978;5.330;2023-02-22T00:59:05;46.83;;;43.53;;
14187;SDS011;7175;51.978;5.330;2023-02-22T01:01:35;43.93;;;40.83;;
14187;SDS011;7175;51.978;5.330;2023-02-22T01:04:03;44.47;;;41.23;;
14187;SDS011;7175;51.978;5.330;2023-02-22T01:06:32;42.40;;;39.40;;
14187;SDS011;7175;51.978;5.330;2023-02-22T01:09:00;42.27;;;39.17;;
14187;SDS011;7175;51.978;5.330;2023-02-22T01:11:29;42.10;;;39.10;;
14187;SDS011;7175;51.978;5.330;2023-02-22T01:13:57;41.07;;;38.17;;
14187;SDS011;7175;51.978;5.330;2023-02-22T01:16:25;42.03;;;39.03;;
14187;SDS011;7175;51.978;5.330;2023-02-22T01:18:55;43.50;;;40.27;;
14187;SDS011;7175;51.978;5.330;2023-02-22T01:21:23;42.23;;;39.33;;
14187;SDS011;7175;51.978;5.330;2023-02-22T01:23:51;45.77;;;42.40;;
14187;SDS011;7175;51.978;5.330;2023-02-22T01:26:20;44.43;;;41.33;;
14187;SDS011;7175;51.978;5.330;2023-02-22T01:28:48;44.70;;;41.30;;
14187;SDS011;7175;51.978;5.330;2023-02-22T01:31:16;45.30;;;42.20;;
14187;SDS011;7175;51.978;5.330;2023-02-22T01:33:45;45.37;;;42.13;;
14187;SDS011;7175;51.978;5.330;2023-02-22T01:36:15;45.10;;;42.00;;
14187;SDS011;7175;51.978;5.330;2023-02-22T01:38:44;47.07;;;43.87;;
14187;SDS011;7175;51.978;5.330;2023-02-22T01:41:12;46.80;;;43.60;;
14187;SDS011;7175;51.978;5.330;2023-02-22T01:43:43;44.00;;;41.00;;
14187;SDS011;7175;51.978;5.330;2023-02-22T01:46:21;43.67;;;40.67;;
14187;SDS011;7175;51.978;5.330;2023-02-22T01:48:52;41.63;;;38.73;;
14187;SDS011;7175;51.978;5.330;2023-02-22T01:51:27;44.37;;;41.37;;
14187;SDS011;7175;51.978;5.330;2023-02-22T01:54:00;43.87;;;40.90;;
14187;SDS011;7175;51.978;5.330;2023-02-22T01:56:33;43.30;;;40.40;;
14187;SDS011;7175;51.978;5.330;2023-02-22T01:59:04;44.47;;;41.47;;
14187;SDS011;7175;51.978;5.330;2023-02-22T02:01:34;43.77;;;40.77;;
14187;SDS011;7175;51.978;5.330;2023-02-22T02:04:04;43.63;;;40.63;;
14187;SDS011;7175;51.978;5.330;2023-02-22T02:06:37;42.43;;;39.43;;
14187;SDS011;7175;51.978;5.330;2023-02-22T02:09:09;42.83;;;39.93;;
14187;SDS011;7175;51.978;5.330;2023-02-22T02:11:43;45.60;;;42.47;;
14187;SDS011;7175;51.978;5.330;2023-02-22T02:14:12;46.03;;;42.83;;
14187;SDS011;7175;51.978;5.330;2023-02-22T02:16:41;47.33;;;44.13;;
14187;SDS011;7175;51.978;5.330;2023-02-22T02:19:14;50.20;;;46.70;;
14187;SDS011;7175;51.978;5.330;2023-02-22T02:21:54;49.23;;;45.93;;
14187;SDS011;7175;51.978;5.330;2023-02-22T02:25:07;49.07;;;45.77;;
14187;SDS011;7175;51.978;5.330;2023-02-22T02:28:00;48.03;;;44.83;;
14187;SDS011;7175;51.978;5.330;2023-02-22T02:30:47;49.70;;;46.40;;
14187;SDS011;7175;51.978;5.330;2023-02-22T02:33:37;47.83;;;44.53;;
14187;SDS011;7175;51.978;5.330;2023-02-22T02:36:12;49.70;;;46.30;;
14187;SDS011;7175;51.978;5.330;2023-02-22T02:38:45;50.07;;;46.67;;
14187;SDS011;7175;51.978;5.330;2023-02-22T02:41:20;51.93;;;48.33;;
14187;SDS011;7175;51.978;5.330;2023-02-22T02:43:52;50.63;;;47.13;;
14187;SDS011;7175;51.978;5.330;2023-02-22T02:46:28;49.67;;;46.27;;
14187;SDS011;7175;51.978;5.330;2023-02-22T02:49:03;51.20;;;47.70;;
14187;SDS011;7175;51.978;5.330;2023-02-22T02:51:35;52.63;;;49.03;;
14187;SDS011;7175;51.978;5.330;2023-02-22T02:54:06;51.83;;;48.30;;
14187;SDS011;7175;51.978;5.330;2023-02-22T02:56:35;52.80;;;49.20;;
14187;SDS011;7175;51.978;5.330;2023-02-22T02:59:18;51.97;;;48.47;;
14187;SDS011;7175;51.978;5.330;2023-02-22T03:01:54;52.60;;;49.00;;
14187;SDS011;7175;51.978;5.330;2023-02-22T03:04:41;52.50;;;48.80;;
14187;SDS011;7175;51.978;5.330;2023-02-22T03:07:32;52.10;;;48.50;;
14187;SDS011;7175;51.978;5.330;2023-02-22T03:10:23;52.20;;;48.60;;
14187;SDS011;7175;51.978;5.330;2023-02-22T03:13:04;53.90;;;50.10;;
14187;SDS011;7175;51.978;5.330;2023-02-22T03:15:43;53.63;;;49.93;;
14187;SDS011;7175;51.978;5.330;2023-02-22T03:18:20;56.20;;;52.40;;
14187;SDS011;7175;51.978;5.330;2023-02-22T03:20:58;53.80;;;50.10;;
14187;SDS011;7175;51.978;5.330;2023-02-22T03:23:34;55.60;;;51.50;;
14187;SDS011;7175;51.978;5.330;2023-02-22T03:26:07;55.50;;;51.70;;
14187;SDS011;7175;51.978;5.330;2023-02-22T03:28:40;56.70;;;52.80;;
14187;SDS011;7175;51.978;5.330;2023-02-22T03:31:11;55.03;;;51.23;;
14187;SDS011;7175;51.978;5.330;2023-02-22T03:33:43;55.87;;;51.97;;
14187;SDS011;7175;51.978;5.330;2023-02-22T03:36:17;56.47;;;52.33;;
14187;SDS011;7175;51.978;5.330;2023-02-22T03:38:50;54.70;;;50.90;;
14187;SDS011;7175;51.978;5.330;2023-02-22T03:41:22;56.00;;;52.10;;
14187;SDS011;7175;51.978;5.330;2023-02-22T03:43:52;58.20;;;53.57;;
14187;SDS011;7175;51.978;5.330;2023-02-22T03:46:25;59.30;;;53.80;;
14187;SDS011;7175;51.978;5.330;2023-02-22T03:48:57;57.00;;;53.00;;
14187;SDS011;7175;51.978;5.330;2023-02-22T03:51:29;56.90;;;52.90;;
14187;SDS011;7175;51.978;5.330;2023-02-22T03:53:58;58.77;;;54.67;;
14187;SDS011;7175;51.978;5.330;2023-02-22T03:56:27;57.67;;;53.57;;
14187;SDS011;7175;51.978;5.330;2023-02-22T03:59:01;56.27;;;52.17;;
14187;SDS011;7175;51.978;5.330;2023-02-22T04:01:31;57.90;;;53.70;;
14187;SDS011;7175;51.978;5.330;2023-02-22T04:04:00;61.23;;;56.73;;
14187;SDS011;7175;51.978;5.330;2023-02-22T04:06:30;59.23;;;54.83;;
14187;SDS011;7175;51.978;5.330;2023-02-22T04:08:58;59.57;;;55.17;;
14187;SDS011;7175;51.978;5.330;2023-02-22T04:11:26;58.47;;;54.17;;
14187;SDS011;7175;51.978;5.330;2023-02-22T04:13:54;59.67;;;54.90;;
14187;SDS011;7175;51.978;5.330;2023-02-22T04:16:23;61.40;;;56.40;;
14187;SDS011;7175;51.978;5.330;2023-02-22T04:18:51;60.77;;;56.37;;
14187;SDS011;7175;51.978;5.330;2023-02-22T04:21:19;61.43;;;56.97;;
14187;SDS011;7175;51.978;5.330;2023-02-22T04:23:49;63.73;;;59.07;;
14187;SDS011;7175;51.978;5.330;2023-02-22T04:26:17;64.70;;;60.00;;
14187;SDS011;7175;51.978;5.330;2023-02-22T04:28:45;65.10;;;60.40;;
14187;SDS011;7175;51.978;5.330;2023-02-22T04:31:14;63.77;;;58.97;;
14187;SDS011;7175;51.978;5.330;2023-02-22T04:33:42;63.87;;;59.07;;
14187;SDS011;7175;51.978;5.330;2023-02-22T04:36:10;61.83;;;57.23;;
14187;SDS011;7175;51.978;5.330;2023-02-22T04:38:41;63.40;;;58.70;;
14187;SDS011;7175;51.978;5.330;2023-02-22T04:41:10;66.33;;;61.43;;
14187;SDS011;7175;51.978;5.330;2023-02-22T04:43:39;64.80;;;60.00;;
14187;SDS011;7175;51.978;5.330;2023-02-22T04:46:07;66.40;;;61.50;;
14187;SDS011;7175;51.978;5.330;2023-02-22T04:48:35;69.40;;;64.27;;
14187;SDS011;7175;51.978;5.330;2023-02-22T04:51:03;64.97;;;60.07;;
14187;SDS011;7175;51.978;5.330;2023-02-22T04:53:32;67.07;;;62.07;;
14187;SDS011;7175;51.978;5.330;2023-02-22T04:56:00;66.47;;;61.47;;
14187;SDS011;7175;51.978;5.330;2023-02-22T04:58:29;69.33;;;64.23;;
14187;SDS011;7175;51.978;5.330;2023-02-22T05:00:58;67.23;;;62.13;;
14187;SDS011;7175;51.978;5.330;2023-02-22T05:03:26;68.03;;;62.83;;
14187;SDS011;7175;51.978;5.330;2023-02-22T05:05:54;67.53;;;62.33;;
14187;SDS011;7175;51.978;5.330;2023-02-22T05:08:22;66.73;;;61.57;;
14187;SDS011;7175;51.978;5.330;2023-02-22T05:10:50;71.40;;;66.00;;
14187;SDS011;7175;51.978;5.330;2023-02-22T05:13:20;68.50;;;63.20;;
14187;SDS011;7175;51.978;5.330;2023-02-22T05:15:49;70.87;;;65.40;;
14187;SDS011;7175;51.978;5.330;2023-02-22T05:18:18;66.93;;;61.67;;
14187;SDS011;7175;51.978;5.330;2023-02-22T05:20:46;67.53;;;62.10;;
14187;SDS011;7175;51.978;5.330;2023-02-22T05:23:14;75.07;;;69.43;;
14187;SDS011;7175;51.978;5.330;2023-02-22T05:25:42;72.87;;;67.27;;
14187;SDS011;7175;51.978;5.330;2023-02-22T05:28:12;70.73;;;65.33;;
14187;SDS011;7175;51.978;5.330;2023-02-22T05:30:41;66.40;;;60.83;;
14187;SDS011;7175;51.978;5.330;2023-02-22T05:33:11;67.83;;;62.53;;
14187;SDS011;7175;51.978;5.330;2023-02-22T05:35:39;70.73;;;65.23;;
14187;SDS011;7175;51.978;5.330;2023-02-22T05:38:08;71.23;;;65.73;;
14187;SDS011;7175;51.978;5.330;2023-02-22T05:40:40;74.23;;;68.53;;
14187;SDS011;7175;51.978;5.330;2023-02-22T05:43:09;76.37;;;70.53;;
14187;SDS011;7175;51.978;5.330;2023-02-22T05:45:37;72.53;;;66.83;;
14187;SDS011;7175;51.978;5.330;2023-02-22T05:48:05;73.33;;;67.67;;
14187;SDS011;7175;51.978;5.330;2023-02-22T05:50:35;74.10;;;68.40;;
14187;SDS011;7175;51.978;5.330;2023-02-22T05:53:03;70.47;;;64.90;;
14187;SDS011;7175;51.978;5.330;2023-02-22T05:55:31;71.97;;;66.37;;
14187;SDS011;7175;51.978;5.330;2023-02-22T05:58:00;72.80;;;66.60;;
14187;SDS011;7175;51.978;5.330;2023-02-22T06:00:31;74.67;;;68.87;;
14187;SDS011;7175;51.978;5.330;2023-02-22T06:03:00;72.93;;;67.13;;
14187;SDS011;7175;51.978;5.330;2023-02-22T06:05:29;73.47;;;67.67;;
14187;SDS011;7175;51.978;5.330;2023-02-22T06:07:59;74.53;;;68.73;;
14187;SDS011;7175;51.978;5.330;2023-02-22T06:10:28;78.00;;;71.90;;
14187;SDS011;7175;51.978;5.330;2023-02-22T06:12:56;72.27;;;66.47;;
14187;SDS011;7175;51.978;5.330;2023-02-22T06:15:26;75.73;;;69.60;;
14187;SDS011;7175;51.978;5.330;2023-02-22T06:17:55;73.47;;;67.67;;
14187;SDS011;7175;51.978;5.330;2023-02-22T06:20:25;69.93;;;64.20;;
14187;SDS011;7175;51.978;5.330;2023-02-22T06:22:55;71.37;;;65.67;;
14187;SDS011;7175;51.978;5.330;2023-02-22T06:25:28;71.10;;;65.50;;
14187;SDS011;7175;51.978;5.330;2023-02-22T06:27:57;70.07;;;64.47;;
14187;SDS011;7175;51.978;5.330;2023-02-22T06:30:26;70.73;;;65.03;;
14187;SDS011;7175;51.978;5.330;2023-02-22T06:32:54;69.97;;;64.27;;
14187;SDS011;7175;51.978;5.330;2023-02-22T06:35:23;71.97;;;66.13;;
14187;SDS011;7175;51.978;5.330;2023-02-22T06:37:53;73.97;;;68.07;;
14187;SDS011;7175;51.978;5.330;2023-02-22T06:40:22;68.53;;;62.93;;
14187;SDS011;7175;51.978;5.330;2023-02-22T06:42:58;66.30;;;60.70;;
14187;SDS011;7175;51.978;5.330;2023-02-22T06:45:26;73.63;;;67.63;;
14187;SDS011;7175;51.978;5.330;2023-02-22T06:47:54;74.27;;;68.17;;
14187;SDS011;7175;51.978;5.330;2023-02-22T06:50:23;74.80;;;67.50;;
14187;SDS011;7175;51.978;5.330;2023-02-22T06:52:54;72.33;;;66.23;;
14187;SDS011;7175;51.978;5.330;2023-02-22T06:55:23;69.77;;;63.77;;
14187;SDS011;7175;51.978;5.330;2023-02-22T06:57:53;71.97;;;65.60;;
14187;SDS011;7175;51.978;5.330;2023-02-22T07:00:23;69.65;;;63.25;;
14187;SDS011;7175;51.978;5.330;2023-02-22T07:02:53;68.27;;;62.27;;
14187;SDS011;7175;51.978;5.330;2023-02-22T07:05:23;70.50;;;64.30;;
14187;SDS011;7175;51.978;5.330;2023-02-22T07:07:52;73.37;;;66.77;;
14187;SDS011;7175;51.978;5.330;2023-02-22T07:12:53;77.03;;;70.63;;
14187;SDS011;7175;51.978;5.330;2023-02-22T07:15:23;73.53;;;67.33;;
14187;SDS011;7175;51.978;5.330;2023-02-22T07:17:53;72.67;;;66.47;;
14187;SDS011;7175;51.978;5.330;2023-02-22T07:20:22;69.67;;;63.67;;
14187;SDS011;7175;51.978;5.330;2023-02-22T07:22:51;71.83;;;65.63;;
14187;SDS011;7175;51.978;5.330;2023-02-22T07:25:19;71.17;;;65.07;;
14187;SDS011;7175;51.978;5.330;2023-02-22T07:27:48;75.37;;;68.97;;
14187;SDS011;7175;51.978;5.330;2023-02-22T07:30:18;73.40;;;67.10;;
14187;SDS011;7175;51.978;5.330;2023-02-22T07:32:52;74.13;;;67.73;;
14187;SDS011;7175;51.978;5.330;2023-02-22T07:35:22;72.50;;;66.27;;
14187;SDS011;7175;51.978;5.330;2023-02-22T07:37:51;72.67;;;66.67;;
14187;SDS011;7175;51.978;5.330;2023-02-22T07:40:21;74.00;;;67.80;;
14187;SDS011;7175;51.978;5.330;2023-02-22T07:42:53;75.30;;;69.00;;
14187;SDS011;7175;51.978;5.330;2023-02-22T07:45:23;74.87;;;68.77;;
14187;SDS011;7175;51.978;5.330;2023-02-22T07:47:54;78.30;;;72.10;;
14187;SDS011;7175;51.978;5.330;2023-02-22T07:50:22;75.17;;;68.90;;
14187;SDS011;7175;51.978;5.330;2023-02-22T07:52:52;74.40;;;68.20;;
14187;SDS011;7175;51.978;5.330;2023-02-22T07:55:22;71.93;;;65.83;;
14187;SDS011;7175;51.978;5.330;2023-02-22T07:57:52;74.13;;;67.87;;
14187;SDS011;7175;51.978;5.330;2023-02-22T08:00:23;72.97;;;66.67;;
14187;SDS011;7175;51.978;5.330;2023-02-22T08:02:54;75.47;;;69.17;;
14187;SDS011;7175;51.978;5.330;2023-02-22T08:05:24;66.80;;;61.00;;
14187;SDS011;7175;51.978;5.330;2023-02-22T08:07:53;69.43;;;63.50;;
14187;SDS011;7175;51.978;5.330;2023-02-22T08:10:22;71.70;;;65.70;;
14187;SDS011;7175;51.978;5.330;2023-02-22T08:12:51;75.50;;;69.30;;
14187;SDS011;7175;51.978;5.330;2023-02-22T08:15:22;73.90;;;67.90;;
14187;SDS011;7175;51.978;5.330;2023-02-22T08:17:51;75.43;;;69.50;;
14187;SDS011;7175;51.978;5.330;2023-02-22T08:20:21;77.27;;;71.07;;
14187;SDS011;7175;51.978;5.330;2023-02-22T08:22:49;73.63;;;67.63;;
14187;SDS011;7175;51.978;5.330;2023-02-22T08:25:18;72.90;;;67.10;;
14187;SDS011;7175;51.978;5.330;2023-02-22T08:27:47;71.67;;;65.77;;
14187;SDS011;7175;51.978;5.330;2023-02-22T08:30:16;71.70;;;65.90;;
14187;SDS011;7175;51.978;5.330;2023-02-22T08:32:47;74.70;;;68.80;;
14187;SDS011;7175;51.978;5.330;2023-02-22T08:35:16;74.37;;;68.47;;
14187;SDS011;7175;51.978;5.330;2023-02-22T08:37:48;76.13;;;70.23;;
14187;SDS011;7175;51.978;5.330;2023-02-22T08:40:19;77.40;;;71.50;;
14187;SDS011;7175;51.978;5.330;2023-02-22T08:42:48;70.47;;;64.97;;
14187;SDS011;7175;51.978;5.330;2023-02-22T08:45:16;67.50;;;62.20;;
14187;SDS011;7175;51.978;5.330;2023-02-22T08:47:45;69.63;;;64.23;;
14187;SDS011;7175;51.978;5.330;2023-02-22T08:50:15;72.40;;;66.70;;
14187;SDS011;7175;51.978;5.330;2023-02-22T08:52:44;68.17;;;62.87;;
14187;SDS011;7175;51.978;5.330;2023-02-22T08:55:14;67.80;;;62.50;;
14187;SDS011;7175;51.978;5.330;2023-02-22T08:57:42;63.57;;;58.47;;
14187;SDS011;7175;51.978;5.330;2023-02-22T09:00:10;60.87;;;55.97;;
14187;SDS011;7175;51.978;5.330;2023-02-22T09:02:41;64.23;;;59.13;;
14187;SDS011;7175;51.978;5.330;2023-02-22T09:05:09;62.33;;;57.23;;
14187;SDS011;7175;51.978;5.330;2023-02-22T09:07:39;59.10;;;54.20;;
14187;SDS011;7175;51.978;5.330;2023-02-22T09:10:09;58.43;;;53.57;;
14187;SDS011;7175;51.978;5.330;2023-02-22T09:12:42;53.90;;;49.40;;
14187;SDS011;7175;51.978;5.330;2023-02-22T09:15:13;55.10;;;50.60;;
14187;SDS011;7175;51.978;5.330;2023-02-22T09:17:41;54.07;;;49.67;;
14187;SDS011;7175;51.978;5.330;2023-02-22T09:20:10;52.30;;;47.90;;
14187;SDS011;7175;51.978;5.330;2023-02-22T09:22:39;54.40;;;50.10;;
14187;SDS011;7175;51.978;5.330;2023-02-22T09:25:07;50.60;;;46.40;;
14187;SDS011;7175;51.978;5.330;2023-02-22T09:27:45;44.57;;;40.77;;
14187;SDS011;7175;51.978;5.330;2023-02-22T09:30:18;43.07;;;39.47;;
14187;SDS011;7175;51.978;5.330;2023-02-22T09:32:51;45.27;;;41.57;;
14187;SDS011;7175;51.978;5.330;2023-02-22T09:35:20;44.40;;;40.70;;
14187;SDS011;7175;51.978;5.330;2023-02-22T09:37:53;42.83;;;39.23;;
14187;SDS011;7175;51.978;5.330;2023-02-22T09:40:22;38.03;;;34.83;;
14187;SDS011;7175;51.978;5.330;2023-02-22T09:42:58;40.73;;;37.33;;
14187;SDS011;7175;51.978;5.330;2023-02-22T09:45:35;38.63;;;35.43;;
14187;SDS011;7175;51.978;5.330;2023-02-22T09:48:10;36.47;;;33.37;;
14187;SDS011;7175;51.978;5.330;2023-02-22T09:50:48;36.77;;;33.37;;
14187;SDS011;7175;51.978;5.330;2023-02-22T09:53:22;34.83;;;31.83;;
14187;SDS011;7175;51.978;5.330;2023-02-22T09:55:58;32.63;;;29.83;;
14187;SDS011;7175;51.978;5.330;2023-02-22T09:58:32;28.00;;;25.60;;
14187;SDS011;7175;51.978;5.330;2023-02-22T10:01:07;29.90;;;27.23;;
14187;SDS011;7175;51.978;5.330;2023-02-22T10:03:48;30.30;;;27.70;;
14187;SDS011;7175;51.978;5.330;2023-02-22T10:06:22;29.67;;;27.17;;
14187;SDS011;7175;51.978;5.330;2023-02-22T10:08:52;29.63;;;27.13;;
14187;SDS011;7175;51.978;5.330;2023-02-22T10:11:28;30.30;;;27.80;;
14187;SDS011;7175;51.978;5.330;2023-02-22T10:14:12;31.83;;;28.93;;
14187;SDS011;7175;51.978;5.330;2023-02-22T10:16:56;33.47;;;30.67;;
14187;SDS011;7175;51.978;5.330;2023-02-22T10:19:33;34.90;;;32.00;;
14187;SDS011;7175;51.978;5.330;2023-02-22T10:25:17;31.53;;;28.93;;
14187;SDS011;7175;51.978;5.330;2023-02-22T10:27:47;29.27;;;26.60;;
14187;SDS011;7175;51.978;5.330;2023-02-22T10:30:25;28.20;;;25.80;;
14187;SDS011;7175;51.978;5.330;2023-02-22T10:33:01;26.40;;;24.20;;
14187;SDS011;7175;51.978;5.330;2023-02-22T10:35:35;27.77;;;25.37;;
14187;SDS011;7175;51.978;5.330;2023-02-22T10:38:10;29.90;;;27.20;;
14187;SDS011;7175;51.978;5.330;2023-02-22T10:40:42;27.87;;;25.47;;
14187;SDS011;7175;51.978;5.330;2023-02-22T10:43:14;27.77;;;25.03;;
14187;SDS011;7175;51.978;5.330;2023-02-22T10:45:44;25.60;;;23.40;;
14187;SDS011;7175;51.978;5.330;2023-02-22T10:48:13;25.07;;;22.97;;
14187;SDS011;7175;51.978;5.330;2023-02-22T10:50:44;26.57;;;24.37;;
14187;SDS011;7175;51.978;5.330;2023-02-22T10:53:13;25.63;;;23.33;;
14187;SDS011;7175;51.978;5.330;2023-02-22T10:58:38;23.93;;;21.83;;
14187;SDS011;7175;51.978;5.330;2023-02-22T11:01:32;23.73;;;21.73;;
14187;SDS011;7175;51.978;5.330;2023-02-22T11:04:06;22.00;;;20.10;;
14187;SDS011;7175;51.978;5.330;2023-02-22T11:06:39;23.77;;;21.37;;
14187;SDS011;7175;51.978;5.330;2023-02-22T11:09:10;21.70;;;19.80;;
14187;SDS011;7175;51.978;5.330;2023-02-22T11:11:41;21.97;;;20.07;;
14187;SDS011;7175;51.978;5.330;2023-02-22T11:14:11;23.77;;;21.37;;
14187;SDS011;7175;51.978;5.330;2023-02-22T11:16:44;21.30;;;19.40;;
14187;SDS011;7175;51.978;5.330;2023-02-22T11:19:17;22.30;;;20.30;;
14187;SDS011;7175;51.978;5.330;2023-02-22T11:21:49;23.13;;;20.93;;
14187;SDS011;7175;51.978;5.330;2023-02-22T11:24:18;22.60;;;20.60;;
14187;SDS011;7175;51.978;5.330;2023-02-22T11:26:51;22.17;;;20.27;;
14187;SDS011;7175;51.978;5.330;2023-02-22T11:29:26;24.43;;;22.27;;
14187;SDS011;7175;51.978;5.330;2023-02-22T11:32:00;22.00;;;20.10;;
14187;SDS011;7175;51.978;5.330;2023-02-22T11:34:32;21.97;;;20.07;;
14187;SDS011;7175;51.978;5.330;2023-02-22T11:40:12;22.60;;;20.70;;
14187;SDS011;7175;51.978;5.330;2023-02-22T11:42:47;21.93;;;20.03;;
14187;SDS011;7175;51.978;5.330;2023-02-22T11:45:33;21.20;;;19.40;;
14187;SDS011;7175;51.978;5.330;2023-02-22T11:48:05;22.20;;;20.20;;
14187;SDS011;7175;51.978;5.330;2023-02-22T11:50:38;20.30;;;18.60;;
14187;SDS011;7175;51.978;5.330;2023-02-22T11:53:25;20.23;;;18.40;;
14187;SDS011;7175;51.978;5.330;2023-02-22T11:56:12;20.47;;;18.77;;
14187;SDS011;7175;51.978;5.330;2023-02-22T11:59:02;19.63;;;17.93;;
14187;SDS011;7175;51.978;5.330;2023-02-22T12:01:38;19.40;;;17.70;;
14187;SDS011;7175;51.978;5.330;2023-02-22T12:07:23;19.93;;;18.23;;
14187;SDS011;7175;51.978;5.330;2023-02-22T12:10:06;20.90;;;19.10;;
14187;SDS011;7175;51.978;5.330;2023-02-22T12:12:47;19.30;;;17.60;;
14187;SDS011;7175;51.978;5.330;2023-02-22T12:15:29;19.80;;;18.07;;
14187;SDS011;7175;51.978;5.330;2023-02-22T12:18:04;20.87;;;19.07;;
14187;SDS011;7175;51.978;5.330;2023-02-22T12:20:42;19.37;;;17.67;;
14187;SDS011;7175;51.978;5.330;2023-02-22T12:23:15;19.73;;;18.03;;
14187;SDS011;7175;51.978;5.330;2023-02-22T12:25:52;20.87;;;18.97;;
14187;SDS011;7175;51.978;5.330;2023-02-22T12:28:28;20.40;;;18.70;;
14187;SDS011;7175;51.978;5.330;2023-02-22T12:31:05;20.50;;;18.80;;
14187;SDS011;7175;51.978;5.330;2023-02-22T12:33:45;20.80;;;19.00;;
14187;SDS011;7175;51.978;5.330;2023-02-22T12:36:23;20.03;;;18.33;;
14187;SDS011;7175;51.978;5.330;2023-02-22T12:38:58;22.27;;;19.00;;
14187;SDS011;7175;51.978;5.330;2023-02-22T12:41:33;19.77;;;18.17;;
14187;SDS011;7175;51.978;5.330;2023-02-22T12:44:07;19.37;;;17.77;;
14187;SDS011;7175;51.978;5.330;2023-02-22T12:46:38;24.20;;;18.17;;
14187;SDS011;7175;51.978;5.330;2023-02-22T12:49:10;19.17;;;17.43;;
14187;SDS011;7175;51.978;5.330;2023-02-22T12:51:47;19.17;;;17.57;;
14187;SDS011;7175;51.978;5.330;2023-02-22T12:54:20;19.97;;;18.27;;
14187;SDS011;7175;51.978;5.330;2023-02-22T12:56:54;20.57;;;18.77;;
14187;SDS011;7175;51.978;5.330;2023-02-22T12:59:28;22.53;;;20.43;;
14187;SDS011;7175;51.978;5.330;2023-02-22T13:02:02;21.03;;;18.73;;
14187;SDS011;7175;51.978;5.330;2023-02-22T13:04:39;19.20;;;17.60;;
14187;SDS011;7175;51.978;5.330;2023-02-22T13:07:11;18.90;;;17.30;;
14187;SDS011;7175;51.978;5.330;2023-02-22T13:09:51;18.77;;;17.23;;
14187;SDS011;7175;51.978;5.330;2023-02-22T13:12:40;19.13;;;17.53;;
14187;SDS011;7175;51.978;5.330;2023-02-22T13:15:21;18.30;;;16.80;;
14187;SDS011;7175;51.978;5.330;2023-02-22T13:17:54;18.20;;;16.70;;
14187;SDS011;7175;51.978;5.330;2023-02-22T13:20:29;18.87;;;17.37;;
14187;SDS011;7175;51.978;5.330;2023-02-22T13:23:05;20.23;;;18.43;;
14187;SDS011;7175;51.978;5.330;2023-02-22T13:25:42;18.27;;;16.77;;
14187;SDS011;7175;51.978;5.330;2023-02-22T13:28:19;19.10;;;17.60;;
14187;SDS011;7175;51.978;5.330;2023-02-22T13:30:54;19.00;;;17.37;;
14187;SDS011;7175;51.978;5.330;2023-02-22T13:33:35;18.60;;;17.10;;
14187;SDS011;7175;51.978;5.330;2023-02-22T13:36:23;19.00;;;17.50;;
14187;SDS011;7175;51.978;5.330;2023-02-22T13:39:17;19.87;;;18.17;;
14187;SDS011;7175;51.978;5.330;2023-02-22T13:42:05;19.40;;;17.80;;
14187;SDS011;7175;51.978;5.330;2023-02-22T13:48:20;20.87;;;19.17;;
14187;SDS011;7175;51.978;5.330;2023-02-22T13:51:08;20.37;;;18.67;;
14187;SDS011;7175;51.978;5.330;2023-02-22T13:53:48;20.20;;;18.50;;
14187;SDS011;7175;51.978;5.330;2023-02-22T13:56:22;20.13;;;18.43;;
14187;SDS011;7175;51.978;5.330;2023-02-22T13:58:52;19.73;;;18.10;;
14187;SDS011;7175;51.978;5.330;2023-02-22T14:01:41;19.40;;;17.80;;
14187;SDS011;7175;51.978;5.330;2023-02-22T14:04:19;21.80;;;19.87;;
14187;SDS011;7175;51.978;5.330;2023-02-22T14:07:04;20.80;;;19.10;;
14187;SDS011;7175;51.978;5.330;2023-02-22T14:10:35;20.60;;;18.80;;
14187;SDS011;7175;51.978;5.330;2023-02-22T14:13:17;19.97;;;18.27;;
14187;SDS011;7175;51.978;5.330;2023-02-22T14:18:46;20.73;;;18.93;;
14187;SDS011;7175;51.978;5.330;2023-02-22T14:21:16;20.33;;;18.63;;
14187;SDS011;7175;51.978;5.330;2023-02-22T14:23:46;20.60;;;18.90;;
14187;SDS011;7175;51.978;5.330;2023-02-22T14:26:18;20.43;;;18.70;;
14187;SDS011;7175;51.978;5.330;2023-02-22T14:28:54;19.70;;;18.00;;
14187;SDS011;7175;51.978;5.330;2023-02-22T14:31:25;20.07;;;18.37;;
14187;SDS011;7175;51.978;5.330;2023-02-22T14:34:04;19.70;;;18.00;;
14187;SDS011;7175;51.978;5.330;2023-02-22T14:36:36;20.33;;;18.57;;
14187;SDS011;7175;51.978;5.330;2023-02-22T14:39:13;19.57;;;17.87;;
14187;SDS011;7175;51.978;5.330;2023-02-22T14:41:48;19.93;;;18.23;;
14187;SDS011;7175;51.978;5.330;2023-02-22T14:44:23;20.23;;;18.53;;
14187;SDS011;7175;51.978;5.330;2023-02-22T14:46:54;20.67;;;18.97;;
14187;SDS011;7175;51.978;5.330;2023-02-22T14:49:27;20.10;;;18.40;;
14187;SDS011;7175;51.978;5.330;2023-02-22T14:52:04;22.20;;;20.03;;
14187;SDS011;7175;51.978;5.330;2023-02-22T14:54:45;21.20;;;19.37;;
14187;SDS011;7175;51.978;5.330;2023-02-22T14:57:20;21.23;;;19.43;;
14187;SDS011;7175;51.978;5.330;2023-02-22T15:00:02;20.93;;;19.03;;
14187;SDS011;7175;51.978;5.330;2023-02-22T15:02:45;20.47;;;18.77;;
14187;SDS011;7175;51.978;5.330;2023-02-22T15:05:14;20.30;;;18.60;;
14187;SDS011;7175;51.978;5.330;2023-02-22T15:07:51;20.63;;;18.93;;
14187;SDS011;7175;51.978;5.330;2023-02-22T15:10:28;21.50;;;19.70;;
14187;SDS011;7175;51.978;5.330;2023-02-22T15:12:58;22.30;;;20.50;;
14187;SDS011;7175;51.978;5.330;2023-02-22T15:15:39;21.00;;;19.20;;
14187;SDS011;7175;51.978;5.330;2023-02-22T15:18:18;21.23;;;19.43;;
14187;SDS011;7175;51.978;5.330;2023-02-22T15:20:50;21.00;;;19.20;;
14187;SDS011;7175;51.978;5.330;2023-02-22T15:23:25;21.97;;;19.87;;
14187;SDS011;7175;51.978;5.330;2023-02-22T15:25:56;21.40;;;19.60;;
14187;SDS011;7175;51.978;5.330;2023-02-22T15:28:25;22.70;;;20.80;;